createdAt,value
2022-09-16T00:02:10.680Z,6.07
2022-09-16T00:05:54.371Z,5.43
2022-09-16T00:09:38.326Z,5.63
2022-09-16T00:13:21.085Z,7.57
2022-09-16T00:17:05.180Z,7.37
2022-09-16T00:20:49.131Z,7.20
2022-09-16T00:24:31.816Z,9.47
2022-09-16T00:28:14.487Z,6.93
2022-09-16T00:31:57.323Z,5.87
2022-09-16T00:35:41.378Z,5.90
2022-09-16T00:39:24.190Z,8.73
2022-09-16T00:43:07.028Z,5.93
2022-09-16T00:46:50.921Z,8.30
2022-09-16T00:50:38.359Z,5.20
2022-09-16T00:54:24.039Z,6.63
2022-09-16T00:58:10.417Z,5.83
2022-09-16T01:01:54.460Z,6.53
2022-09-16T01:05:38.378Z,8.50
2022-09-16T01:09:24.271Z,8.43
2022-09-16T01:13:09.490Z,5.87
2022-09-16T01:16:58.243Z,6.63
2022-09-16T01:21:00.166Z,6.13
2022-09-16T01:24:50.583Z,6.77
2022-09-16T01:28:46.220Z,6.27
2022-09-16T01:32:34.279Z,8.77
2022-09-16T01:36:32.801Z,8.13
2022-09-16T01:40:21.387Z,8.00
2022-09-16T01:44:09.054Z,5.73
2022-09-16T01:47:56.225Z,5.93
2022-09-16T01:51:43.511Z,5.93
2022-09-16T01:55:29.559Z,7.10
2022-09-16T01:59:15.219Z,8.57
2022-09-16T02:03:02.408Z,7.97
2022-09-16T02:06:46.418Z,5.63
2022-09-16T02:10:31.918Z,5.83
2022-09-16T02:14:18.149Z,6.50
2022-09-16T02:18:04.244Z,7.17
2022-09-16T02:21:47.230Z,7.33
2022-09-16T02:25:32.829Z,8.73
2022-09-16T02:29:18.727Z,5.97
2022-09-16T02:33:05.660Z,7.27
2022-09-16T02:36:53.169Z,10.30
2022-09-16T02:40:38.194Z,7.60
2022-09-16T02:44:20.918Z,6.50
2022-09-16T02:48:07.613Z,6.17
2022-09-16T02:51:55.773Z,5.40
2022-09-16T02:55:44.886Z,8.47
2022-09-16T02:59:27.582Z,7.93
2022-09-16T03:03:11.690Z,6.07
2022-09-16T03:06:54.402Z,7.40
2022-09-16T03:10:41.270Z,7.60
2022-09-16T03:14:53.113Z,5.53
2022-09-16T03:18:48.416Z,7.63
2022-09-16T03:22:41.560Z,7.33
2022-09-16T03:26:30.516Z,8.17
2022-09-16T03:30:13.272Z,7.70
2022-09-16T03:34:05.103Z,7.07
2022-09-16T03:37:48.083Z,7.70
2022-09-16T03:41:32.054Z,6.23
2022-09-16T03:45:17.143Z,8.23
2022-09-16T03:49:01.241Z,5.87
2022-09-16T03:52:43.942Z,7.47
2022-09-16T03:56:26.676Z,10.17
2022-09-16T04:00:11.148Z,7.93
2022-09-16T04:03:53.820Z,6.23
2022-09-16T04:07:37.894Z,7.87
2022-09-16T04:11:20.602Z,8.80
2022-09-16T04:15:03.698Z,6.63
2022-09-16T04:18:46.357Z,8.33
2022-09-16T04:22:30.559Z,7.77
2022-09-16T04:26:14.585Z,10.57
2022-09-16T04:29:57.360Z,8.57
2022-09-16T04:33:40.590Z,9.03
2022-09-16T04:37:23.237Z,7.87
2022-09-16T04:41:07.428Z,8.13
2022-09-16T04:44:51.450Z,10.80
2022-09-16T04:48:34.623Z,7.93
2022-09-16T04:52:17.320Z,7.40
2022-09-16T04:56:07.586Z,10.93
2022-09-16T04:59:51.632Z,6.50
2022-09-16T05:03:34.405Z,9.47
2022-09-16T05:07:17.123Z,10.53
2022-09-16T05:11:04.433Z,8.77
2022-09-16T05:14:47.134Z,12.60
2022-09-16T05:18:33.973Z,8.97
2022-09-16T05:22:16.617Z,12.00
2022-09-16T05:26:03.984Z,14.23
2022-09-16T05:29:46.668Z,10.00
2022-09-16T05:33:29.396Z,10.83
2022-09-16T05:37:13.546Z,13.27
2022-09-16T05:40:59.579Z,12.87
2022-09-16T05:44:42.391Z,10.77
2022-09-16T05:48:25.739Z,11.87
2022-09-16T05:52:08.477Z,11.53
2022-09-16T05:56:00.177Z,11.23
2022-09-16T05:59:43.122Z,11.17
2022-09-16T06:03:27.074Z,11.67
2022-09-16T06:07:10.170Z,12.43
2022-09-16T06:10:52.861Z,13.97
2022-09-16T06:14:36.928Z,15.03
2022-09-16T06:18:19.785Z,12.27
2022-09-16T06:22:02.474Z,10.47
2022-09-16T06:25:45.347Z,11.67
2022-09-16T06:29:28.095Z,12.63
2022-09-16T06:33:12.837Z,9.50
2022-09-16T06:36:55.705Z,13.40
2022-09-16T06:40:38.360Z,11.70
2022-09-16T06:44:21.466Z,10.43
2022-09-16T06:48:04.269Z,11.00
2022-09-16T06:51:48.290Z,11.63
2022-09-16T06:55:30.941Z,15.50
2022-09-16T06:59:14.435Z,12.20
2022-09-16T07:02:57.189Z,11.83
2022-09-16T07:10:44.392Z,11.97
2022-09-16T07:14:27.405Z,15.57
2022-09-16T07:18:10.088Z,15.67
2022-09-16T07:21:52.774Z,14.90
2022-09-16T07:25:36.029Z,12.67
2022-09-16T07:29:20.574Z,16.83
2022-09-16T07:33:03.275Z,15.43
2022-09-16T07:36:47.620Z,11.87
2022-09-16T07:40:30.398Z,12.97
2022-09-16T07:44:16.067Z,12.37
2022-09-16T07:48:00.116Z,12.17
2022-09-16T07:51:43.169Z,15.83
2022-09-16T07:55:26.561Z,15.10
2022-09-16T07:59:15.830Z,12.93
2022-09-16T08:03:02.787Z,10.57
2022-09-16T08:06:45.583Z,12.83
2022-09-16T08:10:32.235Z,11.83
2022-09-16T08:14:15.163Z,14.83
2022-09-16T08:17:57.870Z,12.60
2022-09-16T08:21:41.934Z,13.97
2022-09-16T08:25:24.667Z,11.53
2022-09-16T08:29:09.408Z,10.63
2022-09-16T08:32:56.944Z,15.63
2022-09-16T08:36:42.505Z,9.70
2022-09-16T08:40:26.422Z,14.27
2022-09-16T08:44:18.430Z,13.77
2022-09-16T08:48:09.067Z,12.00
2022-09-16T08:51:53.756Z,16.53
2022-09-16T08:55:39.511Z,10.70
2022-09-16T08:59:26.080Z,12.43
2022-09-16T09:03:17.881Z,12.90
2022-09-16T09:07:07.907Z,10.67
2022-09-16T09:10:53.581Z,13.30
2022-09-16T09:14:46.055Z,12.87
2022-09-16T09:18:37.842Z,12.10
2022-09-16T09:22:28.748Z,13.13
2022-09-16T09:26:15.972Z,9.80
2022-09-16T09:30:12.017Z,11.40
2022-09-16T09:34:01.384Z,10.60
2022-09-16T09:37:55.767Z,11.30
2022-09-16T09:41:41.894Z,14.00
2022-09-16T09:45:28.471Z,14.63
2022-09-16T09:49:13.320Z,14.30
2022-09-16T09:53:02.291Z,11.93
2022-09-16T09:56:46.315Z,10.73
2022-09-16T10:00:29.034Z,13.30
2022-09-16T10:04:14.055Z,11.80
2022-09-16T10:08:00.299Z,14.27
2022-09-16T10:11:47.736Z,13.53
2022-09-16T10:15:31.786Z,17.10
2022-09-16T10:19:20.906Z,13.03
2022-09-16T10:23:07.370Z,12.77
2022-09-16T10:26:50.027Z,14.53
2022-09-16T10:30:34.212Z,12.90
2022-09-16T10:34:23.788Z,14.50
2022-09-16T10:38:18.562Z,12.37
2022-09-16T10:42:01.537Z,12.90
2022-09-16T10:45:47.205Z,12.60
2022-09-16T10:49:36.639Z,16.00
2022-09-16T10:53:27.497Z,13.53
2022-09-16T10:57:26.096Z,11.13
2022-09-16T11:01:23.460Z,12.00
2022-09-16T11:05:09.177Z,9.83
2022-09-16T11:09:02.911Z,10.83
2022-09-16T11:12:56.339Z,8.57
2022-09-16T11:16:54.048Z,9.30
2022-09-16T11:20:54.931Z,11.70
2022-09-16T11:25:07.955Z,10.77
2022-09-16T11:29:13.506Z,9.33
2022-09-16T11:33:05.207Z,12.67
2022-09-16T11:36:57.288Z,10.70
2022-09-16T11:40:47.856Z,9.63
2022-09-16T11:44:41.053Z,9.73
2022-09-16T11:48:33.771Z,9.43
2022-09-16T11:52:27.210Z,6.17
2022-09-16T11:56:15.064Z,9.47
2022-09-16T12:00:00.673Z,8.00
2022-09-16T12:03:47.673Z,7.93
2022-09-16T12:07:34.244Z,7.83
2022-09-16T12:11:24.040Z,8.50
2022-09-16T12:15:14.005Z,10.33
2022-09-16T12:18:58.764Z,10.77
2022-09-16T12:22:44.420Z,10.03
2022-09-16T12:26:32.157Z,8.80
2022-09-16T12:30:18.452Z,8.87
2022-09-16T12:34:04.017Z,8.93
2022-09-16T12:37:48.540Z,8.43
2022-09-16T12:41:45.459Z,12.73
2022-09-16T12:46:02.491Z,8.63
2022-09-16T12:50:08.937Z,11.37
2022-09-16T12:54:03.362Z,9.30
2022-09-16T12:58:00.461Z,7.90
2022-09-16T13:01:46.185Z,6.50
2022-09-16T13:05:33.158Z,5.53
2022-09-16T13:09:24.611Z,12.23
2022-09-16T13:13:09.051Z,7.00
2022-09-16T13:16:56.170Z,6.20
2022-09-16T13:20:42.281Z,6.30
2022-09-16T13:24:29.604Z,5.93
2022-09-16T13:28:28.203Z,6.53
2022-09-16T13:32:30.286Z,7.77
2022-09-16T13:36:31.595Z,6.97
2022-09-16T13:40:19.833Z,6.27
2022-09-16T13:44:25.434Z,5.40
2022-09-16T13:48:13.022Z,4.70
2022-09-16T13:51:55.893Z,3.73
2022-09-16T13:55:39.163Z,5.43
2022-09-16T13:59:33.543Z,8.23
2022-09-16T14:03:40.112Z,6.10
2022-09-16T14:07:29.697Z,7.60
2022-09-16T14:11:26.331Z,5.00
2022-09-16T14:15:11.853Z,4.90
2022-09-16T14:18:59.771Z,6.47
2022-09-16T14:22:45.445Z,5.97
2022-09-16T14:26:28.138Z,5.27
2022-09-16T14:30:17.910Z,5.83
2022-09-16T14:34:04.517Z,5.43
2022-09-16T14:37:49.333Z,6.07
2022-09-16T14:41:34.320Z,5.80
2022-09-16T14:45:19.042Z,5.83
2022-09-16T14:49:01.755Z,8.20
2022-09-16T14:52:54.675Z,4.50
2022-09-16T14:56:37.391Z,5.20
2022-09-16T15:00:22.146Z,5.33
2022-09-16T15:04:07.322Z,6.00
2022-09-16T15:08:12.779Z,5.20
2022-09-16T15:11:56.525Z,4.10
2022-09-16T15:15:47.576Z,4.47
2022-09-16T15:19:33.858Z,6.13
2022-09-16T15:23:22.027Z,5.93
2022-09-16T15:27:04.845Z,5.50
2022-09-16T15:30:50.468Z,5.63
2022-09-16T15:34:33.131Z,4.27
2022-09-16T15:38:23.771Z,3.87
2022-09-16T15:42:17.377Z,5.73
2022-09-16T15:46:04.737Z,6.37
2022-09-16T15:49:48.789Z,5.80
2022-09-16T15:53:45.908Z,4.97
2022-09-16T15:57:31.791Z,4.53
2022-09-16T16:01:17.861Z,3.97
2022-09-16T16:05:07.763Z,6.03
2022-09-16T16:08:51.812Z,7.27
2022-09-16T16:12:34.512Z,5.13
2022-09-16T16:16:19.010Z,5.80
2022-09-16T16:20:02.314Z,6.93
2022-09-16T16:23:45.386Z,5.87
2022-09-16T16:27:28.292Z,6.90
2022-09-16T16:31:16.324Z,5.60
2022-09-16T16:35:00.509Z,4.40
2022-09-16T16:38:43.686Z,8.93
2022-09-16T16:42:28.636Z,7.23
2022-09-16T16:46:11.349Z,6.00
2022-09-16T16:49:54.093Z,4.67
2022-09-16T16:53:38.605Z,7.37
2022-09-16T16:57:21.250Z,4.20
2022-09-16T17:01:12.569Z,7.17
2022-09-16T17:04:55.797Z,5.50
2022-09-16T17:08:39.831Z,5.40
2022-09-16T17:12:25.254Z,6.07
2022-09-16T17:16:08.875Z,6.27
2022-09-16T17:19:51.568Z,4.70
2022-09-16T17:23:34.508Z,5.03
2022-09-16T17:27:20.625Z,5.50
2022-09-16T17:31:03.333Z,6.50
2022-09-16T17:34:46.017Z,7.07
2022-09-16T17:38:28.707Z,5.10
2022-09-16T17:42:11.368Z,7.90
2022-09-16T17:45:55.762Z,6.50
2022-09-16T17:49:38.486Z,6.33
2022-09-16T17:53:21.306Z,6.73
2022-09-16T17:57:03.956Z,7.53
2022-09-16T18:00:46.764Z,6.43
2022-09-16T18:04:31.111Z,8.10
2022-09-16T18:08:13.935Z,6.40
2022-09-16T18:11:58.335Z,10.23
2022-09-16T18:15:41.029Z,7.53
2022-09-16T18:19:23.766Z,8.30
2022-09-16T18:23:21.131Z,6.63
2022-09-16T18:27:04.022Z,6.43
2022-09-16T18:30:46.793Z,9.57
2022-09-16T18:34:33.650Z,9.90
2022-09-16T18:38:17.988Z,6.37
2022-09-16T18:42:00.834Z,7.23
2022-09-16T18:45:43.493Z,7.40
2022-09-16T18:49:28.945Z,6.60
2022-09-16T18:53:11.608Z,8.10
2022-09-16T18:56:56.527Z,7.80
2022-09-16T19:00:39.162Z,6.93
2022-09-16T19:04:25.313Z,8.27
2022-09-16T19:08:08.098Z,7.83
2022-09-16T19:11:52.393Z,7.57
2022-09-16T19:15:36.554Z,7.73
2022-09-16T19:19:22.528Z,7.10
2022-09-16T19:23:05.151Z,6.20
2022-09-16T19:26:49.058Z,8.37
2022-09-16T19:30:31.842Z,6.93
2022-09-16T19:34:16.721Z,6.10
2022-09-16T19:38:02.659Z,7.37
2022-09-16T19:41:45.560Z,7.13
2022-09-16T19:45:28.208Z,7.90
2022-09-16T19:49:16.831Z,7.60
2022-09-16T19:52:59.541Z,8.43
2022-09-16T19:56:44.966Z,6.63
2022-09-16T20:00:52.610Z,10.93
2022-09-16T20:04:35.219Z,7.33
2022-09-16T20:08:17.880Z,8.13
2022-09-16T20:12:00.543Z,9.87
2022-09-16T20:15:43.430Z,6.93
2022-09-16T20:19:27.674Z,8.37
2022-09-16T20:23:11.703Z,8.00
2022-09-16T20:26:55.476Z,6.57
2022-09-16T20:30:38.196Z,7.80
2022-09-16T20:34:22.925Z,6.60
2022-09-16T20:38:05.635Z,7.40
2022-09-16T20:41:52.554Z,11.70
2022-09-16T20:45:37.026Z,7.37
2022-09-16T20:49:22.854Z,5.87
2022-09-16T20:53:05.905Z,7.20
2022-09-16T20:56:50.313Z,7.83
2022-09-16T21:00:33.561Z,7.33
2022-09-16T21:04:18.186Z,8.83
2022-09-16T21:08:00.868Z,5.53
2022-09-16T21:11:45.041Z,6.57
2022-09-16T21:15:29.282Z,6.47
2022-09-16T21:19:12.928Z,6.53
2022-09-16T21:22:55.678Z,5.87
2022-09-16T21:26:40.109Z,8.03
2022-09-16T21:30:22.863Z,10.40
2022-09-16T21:34:08.035Z,8.47
2022-09-16T21:37:52.165Z,6.50
2022-09-16T21:41:34.988Z,9.37
2022-09-16T21:45:17.645Z,13.80
2022-09-16T21:49:05.123Z,8.27
2022-09-16T21:52:51.493Z,7.97
2022-09-16T21:56:34.327Z,7.70
2022-09-16T22:00:17.640Z,11.87
2022-09-16T22:04:01.661Z,8.30
2022-09-16T22:07:44.333Z,9.07
2022-09-16T22:11:33.170Z,8.60
2022-09-16T22:15:16.652Z,9.13
2022-09-16T22:19:01.707Z,8.47
2022-09-16T22:22:44.544Z,9.53
2022-09-16T22:26:29.495Z,8.87
2022-09-16T22:30:13.475Z,7.10
2022-09-16T22:34:00.269Z,6.17
2022-09-16T22:37:42.909Z,7.97
2022-09-16T22:41:26.226Z,7.30
2022-09-16T22:45:10.949Z,6.70
2022-09-16T22:48:54.392Z,7.10
2022-09-16T22:52:37.064Z,8.10
2022-09-16T22:56:21.255Z,7.70
2022-09-16T23:00:04.123Z,8.30
2022-09-16T23:03:50.029Z,8.43
2022-09-16T23:07:33.746Z,8.23
2022-09-16T23:11:18.048Z,9.37
2022-09-16T23:15:00.839Z,7.83
2022-09-16T23:18:44.427Z,8.00
2022-09-16T23:22:28.461Z,6.90
2022-09-16T23:26:13.119Z,7.07
2022-09-16T23:29:55.849Z,6.97
2022-09-16T23:33:39.080Z,8.40
2022-09-16T23:37:21.778Z,6.80
2022-09-16T23:41:06.618Z,6.50
2022-09-16T23:44:49.323Z,7.97
2022-09-16T23:48:32.303Z,6.57
2022-09-16T23:52:15.063Z,9.30
2022-09-16T23:55:57.696Z,6.70
2022-09-16T23:59:41.775Z,7.87
